sensor_id;sensor_type;location;lat;lon;timestamp;P1;durP1;ratioP1;P2;durP2;ratioP2
37855;SDS011;23694;43.274;26.924;2023-08-06T00:01:45;19.15;;;13.38;;
37855;SDS011;23694;43.274;26.924;2023-08-06T00:04:28;15.13;;;13.15;;
37855;SDS011;23694;43.274;26.924;2023-08-06T00:07:23;18.63;;;12.88;;
37855;SDS011;23694;43.274;26.924;2023-08-06T00:10:03;15.77;;;12.27;;
37855;SDS011;23694;43.274;26.924;2023-08-06T00:12:43;15.07;;;12.93;;
37855;SDS011;23694;43.274;26.924;2023-08-06T00:15:29;17.52;;;13.50;;
37855;SDS011;23694;43.274;26.924;2023-08-06T00:18:10;13.60;;;12.15;;
37855;SDS011;23694;43.274;26.924;2023-08-06T00:20:48;14.05;;;12.30;;
37855;SDS011;23694;43.274;26.924;2023-08-06T00:23:23;15.25;;;13.63;;
37855;SDS011;23694;43.274;26.924;2023-08-06T00:26:03;14.15;;;12.65;;
37855;SDS011;23694;43.274;26.924;2023-08-06T00:28:48;18.92;;;13.73;;
37855;SDS011;23694;43.274;26.924;2023-08-06T00:31:18;16.42;;;12.93;;
37855;SDS011;23694;43.274;26.924;2023-08-06T00:33:48;18.27;;;13.88;;
37855;SDS011;23694;43.274;26.924;2023-08-06T00:36:24;15.20;;;12.57;;
37855;SDS011;23694;43.274;26.924;2023-08-06T00:41:43;15.07;;;13.43;;
37855;SDS011;23694;43.274;26.924;2023-08-06T00:44:29;18.58;;;14.00;;
37855;SDS011;23694;43.274;26.924;2023-08-06T00:47:20;15.75;;;13.45;;
37855;SDS011;23694;43.274;26.924;2023-08-06T00:49:51;16.42;;;13.38;;
37855;SDS011;23694;43.274;26.924;2023-08-06T00:52:32;17.77;;;13.20;;
37855;SDS011;23694;43.274;26.924;2023-08-06T00:55:18;17.10;;;13.90;;
37855;SDS011;23694;43.274;26.924;2023-08-06T00:57:53;17.37;;;13.37;;
37855;SDS011;23694;43.274;26.924;2023-08-06T01:03:04;16.80;;;13.70;;
37855;SDS011;23694;43.274;26.924;2023-08-06T01:05:37;16.42;;;13.10;;
37855;SDS011;23694;43.274;26.924;2023-08-06T01:17:16;15.20;;;13.40;;
37855;SDS011;23694;43.274;26.924;2023-08-06T01:19:54;17.70;;;14.10;;
37855;SDS011;23694;43.274;26.924;2023-08-06T01:22:35;16.95;;;15.15;;
37855;SDS011;23694;43.274;26.924;2023-08-06T01:25:35;17.50;;;15.45;;
37855;SDS011;23694;43.274;26.924;2023-08-06T01:28:27;20.67;;;15.10;;
37855;SDS011;23694;43.274;26.924;2023-08-06T01:31:22;16.60;;;14.77;;
37855;SDS011;23694;43.274;26.924;2023-08-06T01:34:24;15.88;;;13.55;;
37855;SDS011;23694;43.274;26.924;2023-08-06T01:37:10;18.95;;;13.70;;
37855;SDS011;23694;43.274;26.924;2023-08-06T01:39:41;22.48;;;14.50;;
37855;SDS011;23694;43.274;26.924;2023-08-06T01:42:18;15.18;;;13.45;;
37855;SDS011;23694;43.274;26.924;2023-08-06T01:44:53;17.10;;;14.20;;
37855;SDS011;23694;43.274;26.924;2023-08-06T01:47:36;16.88;;;14.10;;
37855;SDS011;23694;43.274;26.924;2023-08-06T01:50:12;16.63;;;13.90;;
37855;SDS011;23694;43.274;26.924;2023-08-06T01:52:52;15.80;;;14.13;;
37855;SDS011;23694;43.274;26.924;2023-08-06T01:55:25;19.15;;;15.10;;
37855;SDS011;23694;43.274;26.924;2023-08-06T01:58:05;15.15;;;13.43;;
37855;SDS011;23694;43.274;26.924;2023-08-06T02:00:39;16.42;;;13.70;;
37855;SDS011;23694;43.274;26.924;2023-08-06T02:03:16;22.33;;;14.05;;
37855;SDS011;23694;43.274;26.924;2023-08-06T02:05:58;16.95;;;13.52;;
37855;SDS011;23694;43.274;26.924;2023-08-06T02:08:40;15.82;;;13.27;;
37855;SDS011;23694;43.274;26.924;2023-08-06T02:11:14;18.13;;;13.93;;
37855;SDS011;23694;43.274;26.924;2023-08-06T02:13:47;18.58;;;13.30;;
37855;SDS011;23694;43.274;26.924;2023-08-06T02:16:16;15.82;;;14.13;;
37855;SDS011;23694;43.274;26.924;2023-08-06T02:19:29;22.13;;;14.52;;
37855;SDS011;23694;43.274;26.924;2023-08-06T02:22:09;19.05;;;14.27;;
37855;SDS011;23694;43.274;26.924;2023-08-06T02:24:52;17.02;;;14.45;;
37855;SDS011;23694;43.274;26.924;2023-08-06T02:27:46;17.23;;;13.68;;
37855;SDS011;23694;43.274;26.924;2023-08-06T02:30:28;17.88;;;14.43;;
37855;SDS011;23694;43.274;26.924;2023-08-06T02:33:03;17.83;;;14.30;;
37855;SDS011;23694;43.274;26.924;2023-08-06T02:35:42;16.13;;;14.40;;
37855;SDS011;23694;43.274;26.924;2023-08-06T02:38:16;18.83;;;14.48;;
37855;SDS011;23694;43.274;26.924;2023-08-06T02:40:50;20.25;;;14.82;;
37855;SDS011;23694;43.274;26.924;2023-08-06T02:43:24;19.83;;;14.63;;
37855;SDS011;23694;43.274;26.924;2023-08-06T02:45:56;17.35;;;12.85;;
37855;SDS011;23694;43.274;26.924;2023-08-06T02:48:27;16.92;;;12.30;;
37855;SDS011;23694;43.274;26.924;2023-08-06T02:51:01;14.75;;;11.43;;
37855;SDS011;23694;43.274;26.924;2023-08-06T02:53:31;14.45;;;11.95;;
37855;SDS011;23694;43.274;26.924;2023-08-06T02:56:12;19.33;;;12.48;;
37855;SDS011;23694;43.274;26.924;2023-08-06T02:58:52;14.60;;;11.93;;
37855;SDS011;23694;43.274;26.924;2023-08-06T03:01:28;17.00;;;12.45;;
37855;SDS011;23694;43.274;26.924;2023-08-06T03:04:07;14.70;;;11.95;;
37855;SDS011;23694;43.274;26.924;2023-08-06T03:06:52;19.13;;;12.77;;
37855;SDS011;23694;43.274;26.924;2023-08-06T03:09:32;13.52;;;10.65;;
37855;SDS011;23694;43.274;26.924;2023-08-06T03:12:23;14.63;;;11.57;;
37855;SDS011;23694;43.274;26.924;2023-08-06T03:15:04;16.90;;;12.30;;
37855;SDS011;23694;43.274;26.924;2023-08-06T03:17:41;12.55;;;11.13;;
37855;SDS011;23694;43.274;26.924;2023-08-06T03:20:19;14.40;;;10.90;;
37855;SDS011;23694;43.274;26.924;2023-08-06T03:22:51;12.68;;;10.13;;
37855;SDS011;23694;43.274;26.924;2023-08-06T03:25:30;12.98;;;10.43;;
37855;SDS011;23694;43.274;26.924;2023-08-06T03:28:16;12.55;;;11.10;;
37855;SDS011;23694;43.274;26.924;2023-08-06T03:30:58;12.63;;;9.80;;
37855;SDS011;23694;43.274;26.924;2023-08-06T03:33:40;13.02;;;9.30;;
37855;SDS011;23694;43.274;26.924;2023-08-06T03:36:19;14.13;;;9.80;;
37855;SDS011;23694;43.274;26.924;2023-08-06T03:38:48;14.48;;;10.35;;
37855;SDS011;23694;43.274;26.924;2023-08-06T03:41:21;14.57;;;10.35;;
37855;SDS011;23694;43.274;26.924;2023-08-06T03:43:50;16.30;;;10.65;;
37855;SDS011;23694;43.274;26.924;2023-08-06T03:46:30;12.50;;;10.30;;
37855;SDS011;23694;43.274;26.924;2023-08-06T03:49:13;15.82;;;10.10;;
37855;SDS011;23694;43.274;26.924;2023-08-06T03:51:47;15.48;;;10.77;;
37855;SDS011;23694;43.274;26.924;2023-08-06T03:54:19;11.57;;;10.20;;
37855;SDS011;23694;43.274;26.924;2023-08-06T03:57:03;13.05;;;9.07;;
37855;SDS011;23694;43.274;26.924;2023-08-06T03:59:37;12.23;;;7.78;;
37855;SDS011;23694;43.274;26.924;2023-08-06T04:02:21;21.52;;;8.32;;
37855;SDS011;23694;43.274;26.924;2023-08-06T04:04:50;10.82;;;7.45;;
37855;SDS011;23694;43.274;26.924;2023-08-06T04:07:21;11.50;;;7.13;;
37855;SDS011;23694;43.274;26.924;2023-08-06T04:10:03;10.45;;;7.20;;
37855;SDS011;23694;43.274;26.924;2023-08-06T04:12:36;11.35;;;6.82;;
37855;SDS011;23694;43.274;26.924;2023-08-06T04:15:07;9.48;;;7.07;;
37855;SDS011;23694;43.274;26.924;2023-08-06T04:17:46;10.35;;;7.53;;
37855;SDS011;23694;43.274;26.924;2023-08-06T04:20:33;11.10;;;7.55;;
37855;SDS011;23694;43.274;26.924;2023-08-06T04:23:15;10.07;;;7.65;;
37855;SDS011;23694;43.274;26.924;2023-08-06T04:25:56;11.13;;;8.00;;
37855;SDS011;23694;43.274;26.924;2023-08-06T04:28:30;10.65;;;7.88;;
37855;SDS011;23694;43.274;26.924;2023-08-06T04:31:02;12.88;;;7.97;;
37855;SDS011;23694;43.274;26.924;2023-08-06T04:33:39;10.02;;;8.18;;
37855;SDS011;23694;43.274;26.924;2023-08-06T04:36:16;12.73;;;8.60;;
37855;SDS011;23694;43.274;26.924;2023-08-06T04:38:50;10.90;;;8.30;;
37855;SDS011;23694;43.274;26.924;2023-08-06T04:41:23;9.18;;;7.72;;
37855;SDS011;23694;43.274;26.924;2023-08-06T04:43:49;9.27;;;7.28;;
37855;SDS011;23694;43.274;26.924;2023-08-06T04:46:17;10.80;;;7.63;;
37855;SDS011;23694;43.274;26.924;2023-08-06T04:49:02;11.48;;;7.30;;
37855;SDS011;23694;43.274;26.924;2023-08-06T04:51:41;11.80;;;8.35;;
37855;SDS011;23694;43.274;26.924;2023-08-06T04:57:14;12.07;;;8.70;;
37855;SDS011;23694;43.274;26.924;2023-08-06T04:59:45;11.45;;;7.75;;
37855;SDS011;23694;43.274;26.924;2023-08-06T05:02:14;15.35;;;10.57;;
37855;SDS011;23694;43.274;26.924;2023-08-06T05:04:52;10.20;;;7.35;;
37855;SDS011;23694;43.274;26.924;2023-08-06T05:07:33;11.98;;;8.45;;
37855;SDS011;23694;43.274;26.924;2023-08-06T05:10:12;11.00;;;7.65;;
37855;SDS011;23694;43.274;26.924;2023-08-06T05:12:50;11.82;;;7.43;;
37855;SDS011;23694;43.274;26.924;2023-08-06T05:15:23;7.88;;;7.07;;
37855;SDS011;23694;43.274;26.924;2023-08-06T05:17:58;11.95;;;7.05;;
37855;SDS011;23694;43.274;26.924;2023-08-06T05:20:29;14.15;;;7.47;;
37855;SDS011;23694;43.274;26.924;2023-08-06T05:22:58;9.50;;;6.63;;
37855;SDS011;23694;43.274;26.924;2023-08-06T05:25:30;11.55;;;6.60;;
37855;SDS011;23694;43.274;26.924;2023-08-06T05:27:57;11.80;;;6.88;;
37855;SDS011;23694;43.274;26.924;2023-08-06T05:30:28;9.93;;;6.22;;
37855;SDS011;23694;43.274;26.924;2023-08-06T05:33:00;9.82;;;6.97;;
37855;SDS011;23694;43.274;26.924;2023-08-06T05:35:31;9.80;;;7.70;;
37855;SDS011;23694;43.274;26.924;2023-08-06T05:38:11;9.90;;;7.28;;
37855;SDS011;23694;43.274;26.924;2023-08-06T05:40:51;9.85;;;6.47;;
37855;SDS011;23694;43.274;26.924;2023-08-06T05:43:30;9.93;;;6.32;;
37855;SDS011;23694;43.274;26.924;2023-08-06T05:46:05;10.25;;;6.47;;
37855;SDS011;23694;43.274;26.924;2023-08-06T05:48:45;9.35;;;7.00;;
37855;SDS011;23694;43.274;26.924;2023-08-06T05:53:48;11.63;;;7.47;;
37855;SDS011;23694;43.274;26.924;2023-08-06T05:58:48;10.52;;;8.50;;
37855;SDS011;23694;43.274;26.924;2023-08-06T06:01:20;12.13;;;7.90;;
37855;SDS011;23694;43.274;26.924;2023-08-06T06:03:50;13.18;;;7.95;;
37855;SDS011;23694;43.274;26.924;2023-08-06T06:06:32;13.32;;;7.88;;
37855;SDS011;23694;43.274;26.924;2023-08-06T06:09:13;13.43;;;7.63;;
37855;SDS011;23694;43.274;26.924;2023-08-06T06:12:07;13.45;;;8.40;;
37855;SDS011;23694;43.274;26.924;2023-08-06T06:14:42;17.08;;;13.80;;
37855;SDS011;23694;43.274;26.924;2023-08-06T06:17:19;9.95;;;7.70;;
37855;SDS011;23694;43.274;26.924;2023-08-06T06:19:46;10.48;;;7.70;;
37855;SDS011;23694;43.274;26.924;2023-08-06T06:22:24;14.13;;;7.88;;
37855;SDS011;23694;43.274;26.924;2023-08-06T06:25:02;11.43;;;7.90;;
37855;SDS011;23694;43.274;26.924;2023-08-06T06:27:40;11.30;;;7.13;;
37855;SDS011;23694;43.274;26.924;2023-08-06T06:30:24;11.52;;;8.27;;
37855;SDS011;23694;43.274;26.924;2023-08-06T06:33:02;14.20;;;7.35;;
37855;SDS011;23694;43.274;26.924;2023-08-06T06:35:37;9.38;;;7.07;;
37855;SDS011;23694;43.274;26.924;2023-08-06T06:38:11;9.32;;;7.47;;
37855;SDS011;23694;43.274;26.924;2023-08-06T06:40:40;10.00;;;7.63;;
37855;SDS011;23694;43.274;26.924;2023-08-06T06:43:10;11.75;;;7.60;;
37855;SDS011;23694;43.274;26.924;2023-08-06T06:45:43;11.40;;;7.43;;
37855;SDS011;23694;43.274;26.924;2023-08-06T06:48:13;10.35;;;6.88;;
37855;SDS011;23694;43.274;26.924;2023-08-06T06:50:41;11.73;;;7.50;;
37855;SDS011;23694;43.274;26.924;2023-08-06T06:53:09;10.15;;;8.00;;
37855;SDS011;23694;43.274;26.924;2023-08-06T06:55:39;9.45;;;7.35;;
37855;SDS011;23694;43.274;26.924;2023-08-06T06:58:15;10.57;;;8.02;;
37855;SDS011;23694;43.274;26.924;2023-08-06T07:00:54;12.80;;;7.60;;
37855;SDS011;23694;43.274;26.924;2023-08-06T07:03:31;14.15;;;7.95;;
37855;SDS011;23694;43.274;26.924;2023-08-06T07:08:53;9.85;;;7.43;;
37855;SDS011;23694;43.274;26.924;2023-08-06T07:11:41;11.40;;;7.43;;
37855;SDS011;23694;43.274;26.924;2023-08-06T07:17:02;11.05;;;6.78;;
37855;SDS011;23694;43.274;26.924;2023-08-06T07:19:38;10.88;;;7.50;;
37855;SDS011;23694;43.274;26.924;2023-08-06T07:22:23;13.23;;;7.32;;
37855;SDS011;23694;43.274;26.924;2023-08-06T07:25:06;9.65;;;6.68;;
37855;SDS011;23694;43.274;26.924;2023-08-06T07:27:48;8.55;;;6.45;;
37855;SDS011;23694;43.274;26.924;2023-08-06T07:30:28;8.13;;;7.15;;
37855;SDS011;23694;43.274;26.924;2023-08-06T07:32:59;11.02;;;7.22;;
37855;SDS011;23694;43.274;26.924;2023-08-06T07:35:42;8.00;;;6.53;;
37855;SDS011;23694;43.274;26.924;2023-08-06T07:38:13;10.95;;;6.82;;
37855;SDS011;23694;43.274;26.924;2023-08-06T07:40:40;14.73;;;7.82;;
37855;SDS011;23694;43.274;26.924;2023-08-06T07:43:09;10.25;;;7.25;;
37855;SDS011;23694;43.274;26.924;2023-08-06T07:45:48;8.10;;;6.82;;
37855;SDS011;23694;43.274;26.924;2023-08-06T07:48:24;15.38;;;6.88;;
37855;SDS011;23694;43.274;26.924;2023-08-06T07:50:54;10.88;;;6.88;;
37855;SDS011;23694;43.274;26.924;2023-08-06T07:53:32;8.30;;;6.50;;
37855;SDS011;23694;43.274;26.924;2023-08-06T07:56:09;7.57;;;6.20;;
37855;SDS011;23694;43.274;26.924;2023-08-06T07:58:47;11.35;;;6.40;;
37855;SDS011;23694;43.274;26.924;2023-08-06T08:01:16;9.20;;;6.55;;
37855;SDS011;23694;43.274;26.924;2023-08-06T08:03:47;9.27;;;6.30;;
37855;SDS011;23694;43.274;26.924;2023-08-06T08:06:15;8.82;;;6.75;;
37855;SDS011;23694;43.274;26.924;2023-08-06T08:08:48;10.40;;;6.35;;
37855;SDS011;23694;43.274;26.924;2023-08-06T08:11:20;9.97;;;6.83;;
37855;SDS011;23694;43.274;26.924;2023-08-06T08:13:51;8.82;;;6.22;;
37855;SDS011;23694;43.274;26.924;2023-08-06T08:16:36;9.18;;;6.03;;
37855;SDS011;23694;43.274;26.924;2023-08-06T08:19:18;10.95;;;7.28;;
37855;SDS011;23694;43.274;26.924;2023-08-06T08:21:50;9.63;;;6.03;;
37855;SDS011;23694;43.274;26.924;2023-08-06T08:24:25;10.70;;;7.35;;
37855;SDS011;23694;43.274;26.924;2023-08-06T08:27:02;7.97;;;7.10;;
37855;SDS011;23694;43.274;26.924;2023-08-06T08:29:34;7.95;;;6.75;;
37855;SDS011;23694;43.274;26.924;2023-08-06T08:32:03;10.40;;;7.00;;
37855;SDS011;23694;43.274;26.924;2023-08-06T08:34:51;10.82;;;7.13;;
37855;SDS011;23694;43.274;26.924;2023-08-06T08:37:23;10.13;;;7.32;;
37855;SDS011;23694;43.274;26.924;2023-08-06T08:39:56;9.48;;;7.32;;
37855;SDS011;23694;43.274;26.924;2023-08-06T08:42:31;8.07;;;6.70;;
37855;SDS011;23694;43.274;26.924;2023-08-06T08:45:24;12.77;;;9.70;;
37855;SDS011;23694;43.274;26.924;2023-08-06T08:50:46;10.15;;;9.20;;
37855;SDS011;23694;43.274;26.924;2023-08-06T08:53:21;10.95;;;7.15;;
37855;SDS011;23694;43.274;26.924;2023-08-06T08:55:54;12.88;;;11.43;;
37855;SDS011;23694;43.274;26.924;2023-08-06T08:58:34;10.40;;;8.50;;
37855;SDS011;23694;43.274;26.924;2023-08-06T09:01:18;11.68;;;10.32;;
37855;SDS011;23694;43.274;26.924;2023-08-06T09:03:52;9.57;;;6.95;;
37855;SDS011;23694;43.274;26.924;2023-08-06T09:06:36;12.55;;;9.70;;
37855;SDS011;23694;43.274;26.924;2023-08-06T09:12:15;10.60;;;6.93;;
37855;SDS011;23694;43.274;26.924;2023-08-06T09:14:57;7.90;;;6.13;;
37855;SDS011;23694;43.274;26.924;2023-08-06T09:17:31;9.95;;;6.50;;
37855;SDS011;23694;43.274;26.924;2023-08-06T09:20:15;7.70;;;6.57;;
37855;SDS011;23694;43.274;26.924;2023-08-06T09:22:52;9.65;;;6.85;;
37855;SDS011;23694;43.274;26.924;2023-08-06T09:25:25;17.67;;;7.13;;
37855;SDS011;23694;43.274;26.924;2023-08-06T09:27:55;9.05;;;6.63;;
37855;SDS011;23694;43.274;26.924;2023-08-06T09:30:30;8.55;;;6.13;;
37855;SDS011;23694;43.274;26.924;2023-08-06T09:33:03;8.13;;;6.38;;
37855;SDS011;23694;43.274;26.924;2023-08-06T09:35:45;11.48;;;6.28;;
37855;SDS011;23694;43.274;26.924;2023-08-06T09:38:16;9.18;;;7.00;;
37855;SDS011;23694;43.274;26.924;2023-08-06T09:40:51;8.65;;;5.97;;
37855;SDS011;23694;43.274;26.924;2023-08-06T09:43:25;41.08;;;7.93;;
37855;SDS011;23694;43.274;26.924;2023-08-06T09:45:56;11.02;;;6.63;;
37855;SDS011;23694;43.274;26.924;2023-08-06T09:48:30;7.00;;;5.60;;
37855;SDS011;23694;43.274;26.924;2023-08-06T09:50:59;7.05;;;6.35;;
37855;SDS011;23694;43.274;26.924;2023-08-06T09:53:30;10.90;;;6.85;;
37855;SDS011;23694;43.274;26.924;2023-08-06T09:56:01;20.52;;;10.68;;
37855;SDS011;23694;43.274;26.924;2023-08-06T09:58:29;13.07;;;9.95;;
37855;SDS011;23694;43.274;26.924;2023-08-06T10:00:59;10.07;;;7.65;;
37855;SDS011;23694;43.274;26.924;2023-08-06T10:03:30;6.97;;;6.10;;
37855;SDS011;23694;43.274;26.924;2023-08-06T10:06:00;7.70;;;5.93;;
37855;SDS011;23694;43.274;26.924;2023-08-06T10:08:32;8.05;;;6.40;;
37855;SDS011;23694;43.274;26.924;2023-08-06T10:11:08;11.77;;;6.28;;
37855;SDS011;23694;43.274;26.924;2023-08-06T10:13:37;11.38;;;6.25;;
37855;SDS011;23694;43.274;26.924;2023-08-06T10:16:14;9.85;;;5.85;;
37855;SDS011;23694;43.274;26.924;2023-08-06T10:18:47;8.57;;;6.03;;
37855;SDS011;23694;43.274;26.924;2023-08-06T10:21:27;6.88;;;5.80;;
37855;SDS011;23694;43.274;26.924;2023-08-06T10:23:57;7.00;;;6.25;;
37855;SDS011;23694;43.274;26.924;2023-08-06T10:26:29;9.65;;;6.53;;
37855;SDS011;23694;43.274;26.924;2023-08-06T10:28:57;13.88;;;6.10;;
37855;SDS011;23694;43.274;26.924;2023-08-06T10:32:09;6.45;;;5.85;;
37855;SDS011;23694;43.274;26.924;2023-08-06T10:34:25;102.32;;;9.93;;
37855;SDS011;23694;43.274;26.924;2023-08-06T10:37:15;97.95;;;7.15;;
37855;SDS011;23694;43.274;26.924;2023-08-06T10:39:53;30.75;;;3.40;;
37855;SDS011;23694;43.274;26.924;2023-08-06T10:42:33;29.98;;;3.38;;
37855;SDS011;23694;43.274;26.924;2023-08-06T10:51:15;10.18;;;1.30;;
37855;SDS011;23694;43.274;26.924;2023-08-06T10:56:46;2.10;;;1.15;;
37855;SDS011;23694;43.274;26.924;2023-08-06T11:02:49;6.22;;;3.05;;
37855;SDS011;23694;43.274;26.924;2023-08-06T11:05:37;4.40;;;2.38;;
37855;SDS011;23694;43.274;26.924;2023-08-06T11:14:58;9.93;;;7.88;;
37855;SDS011;23694;43.274;26.924;2023-08-06T11:17:46;6.55;;;3.13;;
37855;SDS011;23694;43.274;26.924;2023-08-06T11:20:27;3.78;;;2.28;;
37855;SDS011;23694;43.274;26.924;2023-08-06T11:22:59;4.65;;;2.53;;
37855;SDS011;23694;43.274;26.924;2023-08-06T11:25:35;7.35;;;2.75;;
37855;SDS011;23694;43.274;26.924;2023-08-06T11:30:53;10.23;;;3.50;;
37855;SDS011;23694;43.274;26.924;2023-08-06T11:33:37;21.27;;;5.20;;
37855;SDS011;23694;43.274;26.924;2023-08-06T11:36:04;16.63;;;5.30;;
37855;SDS011;23694;43.274;26.924;2023-08-06T11:38:43;15.27;;;5.53;;
37855;SDS011;23694;43.274;26.924;2023-08-06T11:47:36;12.10;;;5.57;;
37855;SDS011;23694;43.274;26.924;2023-08-06T11:50:53;9.18;;;5.72;;
37855;SDS011;23694;43.274;26.924;2023-08-06T11:53:46;9.73;;;6.50;;
37855;SDS011;23694;43.274;26.924;2023-08-06T11:59:50;9.40;;;6.37;;
37855;SDS011;23694;43.274;26.924;2023-08-06T12:08:25;7.45;;;4.80;;
37855;SDS011;23694;43.274;26.924;2023-08-06T12:11:22;5.75;;;4.82;;
37855;SDS011;23694;43.274;26.924;2023-08-06T12:14:29;8.07;;;6.00;;
37855;SDS011;23694;43.274;26.924;2023-08-06T12:17:33;9.23;;;6.18;;
37855;SDS011;23694;43.274;26.924;2023-08-06T12:26:14;9.13;;;6.90;;
37855;SDS011;23694;43.274;26.924;2023-08-06T12:29:20;8.85;;;6.53;;
37855;SDS011;23694;43.274;26.924;2023-08-06T12:34:45;10.65;;;9.45;;
37855;SDS011;23694;43.274;26.924;2023-08-06T12:37:12;9.00;;;6.95;;
37855;SDS011;23694;43.274;26.924;2023-08-06T12:39:48;8.80;;;6.90;;
37855;SDS011;23694;43.274;26.924;2023-08-06T12:42:32;11.52;;;7.40;;
37855;SDS011;23694;43.274;26.924;2023-08-06T12:45:54;7.80;;;7.10;;
37855;SDS011;23694;43.274;26.924;2023-08-06T12:54:40;7.25;;;6.50;;
37855;SDS011;23694;43.274;26.924;2023-08-06T12:57:30;12.95;;;6.22;;
37855;SDS011;23694;43.274;26.924;2023-08-06T13:00:14;7.15;;;5.90;;
37855;SDS011;23694;43.274;26.924;2023-08-06T13:03:03;6.93;;;6.25;;
37855;SDS011;23694;43.274;26.924;2023-08-06T13:05:50;6.18;;;5.40;;
37855;SDS011;23694;43.274;26.924;2023-08-06T13:08:17;6.45;;;5.85;;
37855;SDS011;23694;43.274;26.924;2023-08-06T13:13:38;6.28;;;5.65;;
37855;SDS011;23694;43.274;26.924;2023-08-06T13:16:22;7.13;;;5.47;;
37855;SDS011;23694;43.274;26.924;2023-08-06T13:19:20;6.30;;;5.55;;
37855;SDS011;23694;43.274;26.924;2023-08-06T13:22:16;7.57;;;5.50;;
37855;SDS011;23694;43.274;26.924;2023-08-06T13:25:09;6.97;;;5.38;;
37855;SDS011;23694;43.274;26.924;2023-08-06T13:27:39;6.68;;;5.55;;
37855;SDS011;23694;43.274;26.924;2023-08-06T13:32:52;15.77;;;11.57;;
37855;SDS011;23694;43.274;26.924;2023-08-06T13:35:27;8.52;;;7.63;;
37855;SDS011;23694;43.274;26.924;2023-08-06T13:40:31;20.52;;;18.60;;
37855;SDS011;23694;43.274;26.924;2023-08-06T13:43:01;8.18;;;5.72;;
37855;SDS011;23694;43.274;26.924;2023-08-06T13:45:31;9.40;;;8.40;;
37855;SDS011;23694;43.274;26.924;2023-08-06T13:48:05;6.43;;;5.78;;
37855;SDS011;23694;43.274;26.924;2023-08-06T13:50:42;6.30;;;4.90;;
37855;SDS011;23694;43.274;26.924;2023-08-06T13:53:36;6.30;;;5.40;;
37855;SDS011;23694;43.274;26.924;2023-08-06T14:01:35;5.10;;;4.60;;
37855;SDS011;23694;43.274;26.924;2023-08-06T14:08:05;8.40;;;5.15;;
37855;SDS011;23694;43.274;26.924;2023-08-06T14:10:55;7.25;;;4.85;;
37855;SDS011;23694;43.274;26.924;2023-08-06T14:13:42;6.40;;;5.00;;
37855;SDS011;23694;43.274;26.924;2023-08-06T14:17:15;5.70;;;4.75;;
37855;SDS011;23694;43.274;26.924;2023-08-06T14:22:16;7.38;;;4.60;;
37855;SDS011;23694;43.274;26.924;2023-08-06T14:27:49;6.75;;;3.80;;
37855;SDS011;23694;43.274;26.924;2023-08-06T14:30:46;3.92;;;3.50;;
37855;SDS011;23694;43.274;26.924;2023-08-06T14:33:58;5.35;;;3.35;;
37855;SDS011;23694;43.274;26.924;2023-08-06T14:36:42;4.35;;;3.58;;
37855;SDS011;23694;43.274;26.924;2023-08-06T14:39:38;4.15;;;3.45;;
37855;SDS011;23694;43.274;26.924;2023-08-06T14:42:38;4.28;;;3.38;;
37855;SDS011;23694;43.274;26.924;2023-08-06T14:48:37;8.55;;;7.60;;
37855;SDS011;23694;43.274;26.924;2023-08-06T14:51:38;9.43;;;6.93;;
37855;SDS011;23694;43.274;26.924;2023-08-06T14:54:34;3.80;;;3.20;;
37855;SDS011;23694;43.274;26.924;2023-08-06T14:57:32;6.22;;;5.30;;
37855;SDS011;23694;43.274;26.924;2023-08-06T15:04:00;3.33;;;3.03;;
37855;SDS011;23694;43.274;26.924;2023-08-06T15:06:55;3.25;;;2.95;;
37855;SDS011;23694;43.274;26.924;2023-08-06T15:09:32;4.97;;;3.08;;
37855;SDS011;23694;43.274;26.924;2023-08-06T15:12:02;4.28;;;3.80;;
37855;SDS011;23694;43.274;26.924;2023-08-06T15:14:41;7.05;;;3.92;;
37855;SDS011;23694;43.274;26.924;2023-08-06T15:17:30;4.75;;;3.50;;
37855;SDS011;23694;43.274;26.924;2023-08-06T15:23:06;3.90;;;3.50;;
37855;SDS011;23694;43.274;26.924;2023-08-06T15:26:03;3.88;;;2.50;;
37855;SDS011;23694;43.274;26.924;2023-08-06T15:28:29;4.03;;;3.00;;
37855;SDS011;23694;43.274;26.924;2023-08-06T15:30:57;3.63;;;3.22;;
37855;SDS011;23694;43.274;26.924;2023-08-06T15:33:29;3.88;;;3.47;;
37855;SDS011;23694;43.274;26.924;2023-08-06T15:35:57;4.30;;;3.83;;
37855;SDS011;23694;43.274;26.924;2023-08-06T15:38:25;5.53;;;3.28;;
37855;SDS011;23694;43.274;26.924;2023-08-06T15:41:01;5.15;;;3.85;;
37855;SDS011;23694;43.274;26.924;2023-08-06T15:43:39;7.80;;;3.35;;
37855;SDS011;23694;43.274;26.924;2023-08-06T15:49:30;6.28;;;3.25;;
37855;SDS011;23694;43.274;26.924;2023-08-06T15:52:30;2.90;;;2.70;;
37855;SDS011;23694;43.274;26.924;2023-08-06T15:58:05;5.55;;;3.88;;
37855;SDS011;23694;43.274;26.924;2023-08-06T16:01:05;5.57;;;3.80;;
37855;SDS011;23694;43.274;26.924;2023-08-06T16:03:59;4.32;;;3.88;;
37855;SDS011;23694;43.274;26.924;2023-08-06T16:06:37;8.60;;;4.88;;
37855;SDS011;23694;43.274;26.924;2023-08-06T16:15:15;3.60;;;3.05;;
37855;SDS011;23694;43.274;26.924;2023-08-06T16:18:04;3.42;;;2.70;;
37855;SDS011;23694;43.274;26.924;2023-08-06T16:21:06;4.20;;;2.83;;
37855;SDS011;23694;43.274;26.924;2023-08-06T16:23:50;3.33;;;3.03;;
37855;SDS011;23694;43.274;26.924;2023-08-06T16:26:35;3.47;;;2.92;;
37855;SDS011;23694;43.274;26.924;2023-08-06T16:29:22;4.70;;;2.90;;
37855;SDS011;23694;43.274;26.924;2023-08-06T16:32:38;3.63;;;2.60;;
37855;SDS011;23694;43.274;26.924;2023-08-06T16:35:36;4.45;;;2.75;;
37855;SDS011;23694;43.274;26.924;2023-08-06T16:38:36;3.85;;;2.60;;
37855;SDS011;23694;43.274;26.924;2023-08-06T16:41:35;3.38;;;2.78;;
37855;SDS011;23694;43.274;26.924;2023-08-06T16:50:32;3.60;;;2.92;;
37855;SDS011;23694;43.274;26.924;2023-08-06T17:02:03;3.35;;;3.05;;
37855;SDS011;23694;43.274;26.924;2023-08-06T17:08:09;3.53;;;3.03;;
37855;SDS011;23694;43.274;26.924;2023-08-06T17:11:05;5.20;;;2.90;;
37855;SDS011;23694;43.274;26.924;2023-08-06T17:14:03;5.07;;;4.10;;
37855;SDS011;23694;43.274;26.924;2023-08-06T17:22:19;4.97;;;3.47;;
37855;SDS011;23694;43.274;26.924;2023-08-06T17:25:04;4.55;;;3.70;;
37855;SDS011;23694;43.274;26.924;2023-08-06T17:28:04;10.52;;;4.68;;
37855;SDS011;23694;43.274;26.924;2023-08-06T17:30:49;7.47;;;4.32;;
37855;SDS011;23694;43.274;26.924;2023-08-06T17:33:36;5.20;;;3.38;;
37855;SDS011;23694;43.274;26.924;2023-08-06T17:36:34;3.80;;;3.40;;
37855;SDS011;23694;43.274;26.924;2023-08-06T17:45:24;4.40;;;2.92;;
37855;SDS011;23694;43.274;26.924;2023-08-06T17:51:30;8.32;;;3.97;;
37855;SDS011;23694;43.274;26.924;2023-08-06T17:54:37;7.35;;;4.28;;
37855;SDS011;23694;43.274;26.924;2023-08-06T17:57:41;6.60;;;4.32;;
37855;SDS011;23694;43.274;26.924;2023-08-06T18:03:48;8.52;;;6.05;;
37855;SDS011;23694;43.274;26.924;2023-08-06T18:06:37;5.57;;;3.78;;
37855;SDS011;23694;43.274;26.924;2023-08-06T18:18:45;3.00;;;2.53;;
37855;SDS011;23694;43.274;26.924;2023-08-06T18:21:37;2.97;;;2.72;;
37855;SDS011;23694;43.274;26.924;2023-08-06T18:24:34;3.58;;;3.28;;
37855;SDS011;23694;43.274;26.924;2023-08-06T18:34:09;4.00;;;2.63;;
37855;SDS011;23694;43.274;26.924;2023-08-06T18:36:40;3.40;;;3.08;;
37855;SDS011;23694;43.274;26.924;2023-08-06T18:42:44;3.40;;;2.83;;
37855;SDS011;23694;43.274;26.924;2023-08-06T18:48:40;5.72;;;2.83;;